createdAt,value
2016-11-25T00:00:01.430Z,1019.66
2016-11-25T00:00:11.442Z,1019.62
2016-11-25T00:00:21.419Z,1019.65
2016-11-25T00:00:31.411Z,1019.62
2016-11-25T00:00:41.407Z,1019.65
2016-11-25T00:00:51.400Z,1019.69
2016-11-25T00:01:01.395Z,1019.68
2016-11-25T00:01:11.387Z,1019.69
2016-11-25T00:01:21.382Z,1019.64
2016-11-25T00:01:31.374Z,1019.6
2016-11-25T00:01:41.367Z,1019.59
2016-11-25T00:01:51.362Z,1019.61
2016-11-25T00:02:01.358Z,1019.64
2016-11-25T00:02:11.351Z,1019.62
2016-11-25T00:02:21.344Z,1019.57
2016-11-25T00:02:31.338Z,1019.58
2016-11-25T00:02:41.331Z,1019.63
2016-11-25T00:02:51.325Z,1019.58
2016-11-25T00:03:01.318Z,1019.61
2016-11-25T00:03:11.312Z,1019.63
2016-11-25T00:03:21.307Z,1019.59
2016-11-25T00:03:31.300Z,1019.57
2016-11-25T00:03:41.295Z,1019.57
2016-11-25T00:03:51.287Z,1019.56
2016-11-25T00:04:01.616Z,1019.55
2016-11-25T00:04:11.276Z,1019.64
2016-11-25T00:04:21.269Z,1019.59
2016-11-25T00:04:31.264Z,1019.6
2016-11-25T00:04:41.256Z,1019.55
2016-11-25T00:04:51.248Z,1019.61
2016-11-25T00:05:01.243Z,1019.57
2016-11-25T00:05:11.238Z,1019.59
2016-11-25T00:05:21.230Z,1019.59
2016-11-25T00:05:31.226Z,1019.57
2016-11-25T00:05:41.219Z,1019.55
2016-11-25T00:05:51.212Z,1019.58
2016-11-25T00:06:01.206Z,1019.53
2016-11-25T00:06:11.200Z,1019.55
2016-11-25T00:06:21.195Z,1019.52
2016-11-25T00:06:31.187Z,1019.52
2016-11-25T00:06:41.181Z,1019.5
2016-11-25T00:06:51.176Z,1019.5
2016-11-25T00:07:01.167Z,1019.46
2016-11-25T00:07:11.163Z,1019.46
2016-11-25T00:07:21.158Z,1019.5
2016-11-25T00:07:31.149Z,1019.52
2016-11-25T00:07:41.146Z,1019.52
2016-11-25T00:07:51.164Z,1019.5
2016-11-25T00:08:01.132Z,1019.46
2016-11-25T00:08:11.126Z,1019.51
2016-11-25T00:08:21.117Z,1019.5
2016-11-25T00:08:31.114Z,1019.47
2016-11-25T00:08:41.105Z,1019.44
2016-11-25T00:08:51.447Z,1019.48
2016-11-25T00:09:01.095Z,1019.43
2016-11-25T00:09:11.222Z,1019.48
2016-11-25T00:09:21.223Z,1019.45
2016-11-25T00:09:31.073Z,1019.51
2016-11-25T00:09:41.106Z,1019.44
2016-11-25T00:09:51.062Z,1019.45
2016-11-25T00:10:01.056Z,1019.48
2016-11-25T00:10:11.050Z,1019.42
2016-11-25T00:10:21.044Z,1019.43
2016-11-25T00:10:31.038Z,1019.44
2016-11-25T00:10:41.029Z,1019.41
2016-11-25T00:10:51.025Z,1019.39
2016-11-25T00:11:01.018Z,1019.47
2016-11-25T00:11:11.012Z,1019.44
2016-11-25T00:11:21.007Z,1019.39
2016-11-25T00:11:31.002Z,1019.45
2016-11-25T00:11:40.995Z,1019.36
2016-11-25T00:11:50.986Z,1019.42
2016-11-25T00:12:00.981Z,1019.36
2016-11-25T00:12:10.976Z,1019.35
2016-11-25T00:12:21.700Z,1019.35
2016-11-25T00:12:30.963Z,1019.38
2016-11-25T00:12:40.962Z,1019.39
2016-11-25T00:12:50.950Z,1019.31
2016-11-25T00:13:01.280Z,1019.33
2016-11-25T00:13:10.936Z,1019.36
2016-11-25T00:13:20.963Z,1019.34
2016-11-25T00:13:30.925Z,1019.35
2016-11-25T00:13:40.918Z,1019.35
2016-11-25T00:13:50.912Z,1019.35
2016-11-25T00:14:00.906Z,1019.34
2016-11-25T00:14:10.898Z,1019.32
2016-11-25T00:14:20.894Z,1019.3
2016-11-25T00:14:30.887Z,1019.34
2016-11-25T00:14:40.882Z,1019.33
2016-11-25T00:14:50.901Z,1019.36
2016-11-25T00:15:00.868Z,1019.37
2016-11-25T00:15:10.863Z,1019.37
2016-11-25T00:15:20.857Z,1019.34
2016-11-25T00:15:30.849Z,1019.35
2016-11-25T00:15:40.844Z,1019.39
2016-11-25T00:15:50.869Z,1019.4
2016-11-25T00:16:00.831Z,1019.4
2016-11-25T00:16:10.826Z,1019.37
2016-11-25T00:16:20.819Z,1019.37
2016-11-25T00:16:30.812Z,1019.34
2016-11-25T00:16:40.807Z,1019.35
2016-11-25T00:16:50.801Z,1019.39
2016-11-25T00:17:00.794Z,1019.32
2016-11-25T00:17:10.786Z,1019.3
2016-11-25T00:17:20.781Z,1019.32
2016-11-25T00:17:30.774Z,1019.33
2016-11-25T00:17:40.767Z,1019.33
2016-11-25T00:17:50.763Z,1019.38
2016-11-25T00:18:00.758Z,1019.39
2016-11-25T00:18:10.828Z,1019.37
2016-11-25T00:18:20.745Z,1019.36
2016-11-25T00:18:30.736Z,1019.34
2016-11-25T00:18:40.756Z,1019.34
2016-11-25T00:18:50.726Z,1019.31
2016-11-25T00:19:00.721Z,1019.3
2016-11-25T00:19:10.712Z,1019.26
2016-11-25T00:19:20.707Z,1019.25
2016-11-25T00:19:30.698Z,1019.31
2016-11-25T00:19:40.695Z,1019.32
2016-11-25T00:19:50.685Z,1019.24
2016-11-25T00:20:00.682Z,1019.3
2016-11-25T00:20:10.675Z,1019.26
2016-11-25T00:20:20.670Z,1019.34
2016-11-25T00:20:30.664Z,1019.29
2016-11-25T00:20:40.657Z,1019.32
2016-11-25T00:20:50.649Z,1019.32
2016-11-25T00:21:00.646Z,1019.29
2016-11-25T00:21:10.636Z,1019.28
2016-11-25T00:21:20.631Z,1019.31
2016-11-25T00:21:30.723Z,1019.27
2016-11-25T00:21:40.952Z,1019.28
2016-11-25T00:21:50.612Z,1019.27
2016-11-25T00:22:00.605Z,1019.29
2016-11-25T00:22:10.599Z,1019.3
2016-11-25T00:22:20.592Z,1019.25
2016-11-25T00:22:30.583Z,1019.26
2016-11-25T00:22:40.581Z,1019.27
2016-11-25T00:22:50.575Z,1019.27
2016-11-25T00:23:00.568Z,1019.24
2016-11-25T00:23:10.682Z,1019.24
2016-11-25T00:23:20.556Z,1019.24
2016-11-25T00:23:30.548Z,1019.29
2016-11-25T00:23:40.542Z,1019.26
2016-11-25T00:23:50.537Z,1019.26
2016-11-25T00:24:00.531Z,1019.24
2016-11-25T00:24:10.526Z,1019.22
2016-11-25T00:24:20.518Z,1019.21
2016-11-25T00:24:30.512Z,1019.24
2016-11-25T00:24:40.506Z,1019.22
2016-11-25T00:24:50.499Z,1019.23
2016-11-25T00:25:00.492Z,1019.21
2016-11-25T00:25:10.497Z,1019.24
2016-11-25T00:25:20.489Z,1019.25
2016-11-25T00:25:30.475Z,1019.22
2016-11-25T00:25:40.467Z,1019.28
2016-11-25T00:25:50.462Z,1019.25
2016-11-25T00:26:00.456Z,1019.24
2016-11-25T00:26:10.451Z,1019.25
2016-11-25T00:26:20.443Z,1019.26
2016-11-25T00:26:30.437Z,1019.23
2016-11-25T00:26:40.429Z,1019.25
2016-11-25T00:26:50.425Z,1019.29
2016-11-25T00:27:00.418Z,1019.24
2016-11-25T00:27:10.412Z,1019.26
2016-11-25T00:27:20.406Z,1019.27
2016-11-25T00:27:30.400Z,1019.25
2016-11-25T00:27:40.396Z,1019.24
2016-11-25T00:27:50.387Z,1019.24
2016-11-25T00:28:00.381Z,1019.28
2016-11-25T00:28:10.374Z,1019.2
2016-11-25T00:28:20.368Z,1019.27
2016-11-25T00:28:30.363Z,1019.25
2016-11-25T00:28:40.357Z,1019.26
2016-11-25T00:28:50.347Z,1019.25
2016-11-25T00:29:00.343Z,1019.18
2016-11-25T00:29:10.336Z,1019.2
2016-11-25T00:29:20.356Z,1019.17
2016-11-25T00:29:30.325Z,1019.24
2016-11-25T00:29:40.316Z,1019.2
2016-11-25T00:29:50.313Z,1019.24
2016-11-25T00:30:00.307Z,1019.16
2016-11-25T00:30:10.300Z,1019.13
2016-11-25T00:30:20.293Z,1019.17
2016-11-25T00:30:30.286Z,1019.16
2016-11-25T00:30:40.282Z,1019.22
2016-11-25T00:30:50.394Z,1019.14
2016-11-25T00:31:00.267Z,1019.15
2016-11-25T00:31:10.262Z,1019.13
2016-11-25T00:31:20.257Z,1019.11
2016-11-25T00:31:30.248Z,1019.16
2016-11-25T00:31:40.244Z,1019.12
2016-11-25T00:31:50.235Z,1019.14
2016-11-25T00:32:00.230Z,1019.16
2016-11-25T00:32:10.223Z,1019.13
2016-11-25T00:32:20.218Z,1019.16
2016-11-25T00:32:30.213Z,1019.14
2016-11-25T00:32:40.205Z,1019.14
2016-11-25T00:32:50.198Z,1019.08
2016-11-25T00:33:00.193Z,1019.12
2016-11-25T00:33:10.186Z,1019.14
2016-11-25T00:33:20.182Z,1019.14
2016-11-25T00:33:30.175Z,1019.13
2016-11-25T00:33:40.167Z,1019.15
2016-11-25T00:33:50.162Z,1019.1
2016-11-25T00:34:00.157Z,1019.14
2016-11-25T00:34:10.149Z,1019.11
2016-11-25T00:34:20.143Z,1019.08
2016-11-25T00:34:30.136Z,1019.07
2016-11-25T00:34:40.131Z,1019.06
2016-11-25T00:34:50.459Z,1019.07
2016-11-25T00:35:00.117Z,1019.03
2016-11-25T00:35:10.111Z,1018.98
2016-11-25T00:35:20.105Z,1019.07
2016-11-25T00:35:30.097Z,1019.08
2016-11-25T00:35:40.093Z,1019.04
2016-11-25T00:35:50.084Z,1019.01
2016-11-25T00:36:00.080Z,1019.03
2016-11-25T00:36:10.074Z,1019.04
2016-11-25T00:36:20.067Z,1019.03
2016-11-25T00:36:30.060Z,1019.07
2016-11-25T00:36:40.056Z,1019.05
2016-11-25T00:36:50.049Z,1019.04
2016-11-25T00:37:00.043Z,1019.05
2016-11-25T00:37:10.036Z,1018.98
2016-11-25T00:37:20.030Z,1019.01
2016-11-25T00:37:30.144Z,1018.99
2016-11-25T00:37:40.016Z,1018.99
2016-11-25T00:37:50.010Z,1019
2016-11-25T00:38:00.005Z,1019.03
2016-11-25T00:38:10.003Z,1018.99
2016-11-25T00:38:19.993Z,1019.02
2016-11-25T00:38:29.992Z,1019.02
2016-11-25T00:38:39.980Z,1018.97
2016-11-25T00:38:49.974Z,1019.01
2016-11-25T00:38:59.967Z,1019.03
2016-11-25T00:39:09.960Z,1019.01
2016-11-25T00:39:19.955Z,1018.97
2016-11-25T00:39:29.949Z,1018.97
2016-11-25T00:39:39.941Z,1018.97
2016-11-25T00:39:49.937Z,1019
2016-11-25T00:39:59.930Z,1018.98
2016-11-25T00:40:09.923Z,1018.97
2016-11-25T00:40:19.918Z,1019
2016-11-25T00:40:29.928Z,1018.98
2016-11-25T00:40:39.902Z,1018.93
2016-11-25T00:40:49.898Z,1018.97
2016-11-25T00:40:59.893Z,1018.95
2016-11-25T00:41:09.886Z,1018.97
2016-11-25T00:41:19.878Z,1018.93
2016-11-25T00:41:29.873Z,1018.98
2016-11-25T00:41:39.867Z,1018.97
2016-11-25T00:41:49.862Z,1018.93
2016-11-25T00:41:59.855Z,1018.89
2016-11-25T00:42:09.847Z,1018.94
2016-11-25T00:42:19.841Z,1018.91
2016-11-25T00:42:29.834Z,1018.95
2016-11-25T00:42:39.827Z,1018.93
2016-11-25T00:42:49.826Z,1018.96
2016-11-25T00:42:59.815Z,1018.97
2016-11-25T00:43:09.809Z,1018.96
2016-11-25T00:43:19.805Z,1018.96
2016-11-25T00:43:29.797Z,1018.88
2016-11-25T00:43:39.792Z,1018.94
2016-11-25T00:43:49.785Z,1018.97
2016-11-25T00:43:59.776Z,1018.93
2016-11-25T00:44:09.773Z,1018.94
2016-11-25T00:44:19.765Z,1018.91
2016-11-25T00:44:29.762Z,1018.97
2016-11-25T00:44:39.754Z,1018.92
2016-11-25T00:44:49.748Z,1018.93
2016-11-25T00:44:59.743Z,1018.97
2016-11-25T00:45:09.735Z,1018.95
2016-11-25T00:45:19.729Z,1018.9
2016-11-25T00:45:29.724Z,1018.94
2016-11-25T00:45:39.717Z,1018.91
2016-11-25T00:45:49.711Z,1018.93
2016-11-25T00:45:59.705Z,1018.92
2016-11-25T00:46:09.698Z,1018.92
2016-11-25T00:46:19.690Z,1018.89
2016-11-25T00:46:29.683Z,1018.92
2016-11-25T00:46:39.679Z,1018.97
2016-11-25T00:46:49.675Z,1018.9
2016-11-25T00:46:59.666Z,1018.95
2016-11-25T00:47:09.663Z,1018.9
2016-11-25T00:47:19.656Z,1018.89
2016-11-25T00:47:29.646Z,1018.96
2016-11-25T00:47:39.643Z,1018.96
2016-11-25T00:47:49.635Z,1018.95
2016-11-25T00:47:59.629Z,1018.97
2016-11-25T00:48:09.623Z,1018.95
2016-11-25T00:48:19.614Z,1018.98
2016-11-25T00:48:29.609Z,1018.95
2016-11-25T00:48:39.608Z,1018.94
2016-11-25T00:48:49.597Z,1019
2016-11-25T00:48:59.593Z,1018.94
2016-11-25T00:49:09.583Z,1018.98
2016-11-25T00:49:19.579Z,1019.05
2016-11-25T00:49:29.572Z,1018.99
2016-11-25T00:49:39.565Z,1019.01
2016-11-25T00:49:49.560Z,1019
2016-11-25T00:49:59.554Z,1019.05
2016-11-25T00:50:09.546Z,1019.02
2016-11-25T00:50:19.541Z,1019.01
2016-11-25T00:50:29.536Z,1019.01
2016-11-25T00:50:39.528Z,1018.99
2016-11-25T00:50:49.521Z,1019.01
2016-11-25T00:50:59.516Z,1019.03
2016-11-25T00:51:09.509Z,1019.02
2016-11-25T00:51:19.502Z,1019.02
2016-11-25T00:51:29.498Z,1019
2016-11-25T00:51:39.491Z,1019.06
2016-11-25T00:51:49.485Z,1018.99
2016-11-25T00:51:59.477Z,1018.98
2016-11-25T00:52:09.472Z,1019.01
2016-11-25T00:52:19.466Z,1019.01
2016-11-25T00:52:29.460Z,1019
2016-11-25T00:52:39.453Z,1019.01
2016-11-25T00:52:49.447Z,1019.03
2016-11-25T00:52:59.439Z,1019.05
2016-11-25T00:53:09.434Z,1019.06
2016-11-25T00:53:19.455Z,1019.02
2016-11-25T00:53:29.423Z,1019.01
2016-11-25T00:53:39.415Z,1019.07
2016-11-25T00:53:49.409Z,1019.06
2016-11-25T00:53:59.406Z,1019.04
2016-11-25T00:54:09.398Z,1019.03
2016-11-25T00:54:19.390Z,1019.06
2016-11-25T00:54:29.385Z,1019.11
2016-11-25T00:54:39.379Z,1019.09
2016-11-25T00:54:49.372Z,1019.12
2016-11-25T00:54:59.364Z,1019.03
2016-11-25T00:55:09.359Z,1019.11
2016-11-25T00:55:19.355Z,1019.08
2016-11-25T00:55:29.346Z,1019.1
2016-11-25T00:55:39.341Z,1019.07
2016-11-25T00:55:49.333Z,1019.1
2016-11-25T00:55:59.329Z,1019.07
2016-11-25T00:56:09.320Z,1019.08
2016-11-25T00:56:19.316Z,1019.09
2016-11-25T00:56:29.308Z,1019.14
2016-11-25T00:56:39.302Z,1019.1
2016-11-25T00:56:49.295Z,1019.11
2016-11-25T00:56:59.288Z,1019.09
2016-11-25T00:57:09.285Z,1019.1
2016-11-25T00:57:19.276Z,1019.08
2016-11-25T00:57:29.271Z,1019.11
2016-11-25T00:57:39.265Z,1019.14
2016-11-25T00:57:49.259Z,1019.13
2016-11-25T00:57:59.253Z,1019.11
2016-11-25T00:58:09.246Z,1019.1
2016-11-25T00:58:19.361Z,1019.21
2016-11-25T00:58:29.233Z,1019.15
2016-11-25T00:58:39.228Z,1019.13
2016-11-25T00:58:49.220Z,1019.19
2016-11-25T00:58:59.215Z,1019.17
2016-11-25T00:59:09.207Z,1019.2
2016-11-25T00:59:19.201Z,1019.24
2016-11-25T00:59:29.196Z,1019.21
2016-11-25T00:59:39.190Z,1019.2
2016-11-25T00:59:49.181Z,1019.16
2016-11-25T00:59:59.187Z,1019.23
2016-11-25T01:00:09.171Z,1019.21
2016-11-25T01:00:19.162Z,1019.16
2016-11-25T01:00:29.158Z,1019.19
2016-11-25T01:00:39.154Z,1019.18
2016-11-25T01:00:49.144Z,1019.19
2016-11-25T01:00:59.140Z,1019.21
2016-11-25T01:01:09.135Z,1019.15
2016-11-25T01:01:19.153Z,1019.2
2016-11-25T01:01:29.122Z,1019.19
2016-11-25T01:01:39.114Z,1019.19
2016-11-25T01:01:49.107Z,1019.16
2016-11-25T01:01:59.102Z,1019.16
2016-11-25T01:02:09.095Z,1019.21
2016-11-25T01:02:19.088Z,1019.23
2016-11-25T01:02:29.081Z,1019.24
2016-11-25T01:02:39.078Z,1019.25
2016-11-25T01:02:49.072Z,1019.23
2016-11-25T01:02:59.063Z,1019.25
2016-11-25T01:03:09.064Z,1019.25
2016-11-25T01:03:19.052Z,1019.29
2016-11-25T01:03:29.047Z,1019.31
2016-11-25T01:03:39.038Z,1019.31
2016-11-25T01:03:49.032Z,1019.31
2016-11-25T01:03:59.027Z,1019.3
2016-11-25T01:04:09.020Z,1019.26
2016-11-25T01:04:19.037Z,1019.27
2016-11-25T01:04:29.007Z,1019.28
2016-11-25T01:04:39.004Z,1019.21
2016-11-25T01:04:48.993Z,1019.21
2016-11-25T01:04:58.991Z,1019.27
2016-11-25T01:05:08.982Z,1019.25
2016-11-25T01:05:18.976Z,1019.24
2016-11-25T01:05:28.970Z,1019.27
2016-11-25T01:05:38.965Z,1019.25
2016-11-25T01:05:48.957Z,1019.25
2016-11-25T01:05:58.950Z,1019.25
2016-11-25T01:06:08.946Z,1019.32
2016-11-25T01:06:18.940Z,1019.25
2016-11-25T01:06:28.932Z,1019.22
2016-11-25T01:06:38.924Z,1019.23
2016-11-25T01:06:48.919Z,1019.23
2016-11-25T01:06:58.913Z,1019.21
2016-11-25T01:07:08.906Z,1019.18
2016-11-25T01:07:18.902Z,1019.24
2016-11-25T01:07:28.895Z,1019.26
2016-11-25T01:07:38.889Z,1019.21
2016-11-25T01:07:48.881Z,1019.21
2016-11-25T01:07:58.887Z,1019.24
2016-11-25T01:08:08.905Z,1019.28
2016-11-25T01:08:18.862Z,1019.23
2016-11-25T01:08:28.858Z,1019.21
2016-11-25T01:08:38.851Z,1019.23
2016-11-25T01:08:48.845Z,1019.29
2016-11-25T01:08:58.838Z,1019.22
2016-11-25T01:09:08.833Z,1019.22
2016-11-25T01:09:18.827Z,1019.25
2016-11-25T01:09:28.820Z,1019.24
2016-11-25T01:09:38.810Z,1019.26
2016-11-25T01:09:48.807Z,1019.23
2016-11-25T01:09:58.799Z,1019.26
2016-11-25T01:10:08.794Z,1019.22
2016-11-25T01:10:18.789Z,1019.31
2016-11-25T01:10:28.781Z,1019.36
2016-11-25T01:10:38.775Z,1019.33
2016-11-25T01:10:48.769Z,1019.33
2016-11-25T01:10:58.762Z,1019.35
2016-11-25T01:11:08.757Z,1019.33
2016-11-25T01:11:18.751Z,1019.34
2016-11-25T01:11:28.746Z,1019.33
2016-11-25T01:11:38.737Z,1019.36
2016-11-25T01:11:48.731Z,1019.35
2016-11-25T01:11:58.727Z,1019.34
2016-11-25T01:12:08.719Z,1019.3
2016-11-25T01:12:18.713Z,1019.32
2016-11-25T01:12:28.704Z,1019.29
2016-11-25T01:12:38.698Z,1019.32
2016-11-25T01:12:48.693Z,1019.37
2016-11-25T01:12:58.688Z,1019.35
2016-11-25T01:13:08.681Z,1019.37
2016-11-25T01:13:18.676Z,1019.37
2016-11-25T01:13:28.669Z,1019.34
2016-11-25T01:13:38.663Z,1019.31
2016-11-25T01:13:48.654Z,1019.26
2016-11-25T01:13:58.652Z,1019.36
2016-11-25T01:14:08.642Z,1019.31
2016-11-25T01:14:18.638Z,1019.32
2016-11-25T01:14:28.629Z,1019.33
2016-11-25T01:14:38.625Z,1019.39
2016-11-25T01:14:48.618Z,1019.32
2016-11-25T01:14:58.646Z,1019.28
2016-11-25T01:15:08.605Z,1019.28
2016-11-25T01:15:18.599Z,1019.29
2016-11-25T01:15:28.594Z,1019.34
2016-11-25T01:15:38.587Z,1019.3
2016-11-25T01:15:48.578Z,1019.29
2016-11-25T01:15:58.574Z,1019.27
2016-11-25T01:16:08.567Z,1019.31
2016-11-25T01:16:18.560Z,1019.25
2016-11-25T01:16:28.555Z,1019.3
2016-11-25T01:16:38.549Z,1019.33
2016-11-25T01:16:48.543Z,1019.28
2016-11-25T01:16:58.537Z,1019.31
2016-11-25T01:17:08.530Z,1019.31
2016-11-25T01:17:18.527Z,1019.31
2016-11-25T01:17:28.517Z,1019.31
2016-11-25T01:17:38.510Z,1019.33
2016-11-25T01:17:48.506Z,1019.35
2016-11-25T01:17:58.498Z,1019.35
2016-11-25T01:18:08.492Z,1019.37
2016-11-25T01:18:18.487Z,1019.32
2016-11-25T01:18:28.480Z,1019.32
2016-11-25T01:18:38.499Z,1019.35
2016-11-25T01:18:48.805Z,1019.3
2016-11-25T01:18:58.461Z,1019.36
2016-11-25T01:19:09.060Z,1019.35
2016-11-25T01:19:18.450Z,1019.38
2016-11-25T01:19:28.441Z,1019.41
2016-11-25T01:19:38.435Z,1019.37
2016-11-25T01:19:48.551Z,1019.41
2016-11-25T01:19:58.423Z,1019.4
2016-11-25T01:20:08.416Z,1019.35
2016-11-25T01:20:18.766Z,1019.35
2016-11-25T01:20:28.403Z,1019.39
2016-11-25T01:20:38.397Z,1019.41
2016-11-25T01:20:48.393Z,1019.42
2016-11-25T01:20:58.388Z,1019.41
2016-11-25T01:21:08.379Z,1019.35
2016-11-25T01:21:18.373Z,1019.41
2016-11-25T01:21:28.368Z,1019.42
2016-11-25T01:21:38.361Z,1019.4
2016-11-25T01:21:48.352Z,1019.39
2016-11-25T01:21:58.348Z,1019.42
2016-11-25T01:22:08.341Z,1019.41
2016-11-25T01:22:18.335Z,1019.37
2016-11-25T01:22:28.328Z,1019.43
2016-11-25T01:22:38.321Z,1019.43
2016-11-25T01:22:48.316Z,1019.44
2016-11-25T01:22:58.335Z,1019.44
2016-11-25T01:23:08.305Z,1019.44
2016-11-25T01:23:18.299Z,1019.46
2016-11-25T01:23:28.291Z,1019.44
2016-11-25T01:23:38.286Z,1019.39
2016-11-25T01:23:48.278Z,1019.47
2016-11-25T01:23:58.273Z,1019.48
2016-11-25T01:24:08.266Z,1019.47
2016-11-25T01:24:18.280Z,1019.44
2016-11-25T01:24:28.253Z,1019.48
2016-11-25T01:24:38.249Z,1019.42
2016-11-25T01:24:48.240Z,1019.47
2016-11-25T01:24:58.236Z,1019.48
2016-11-25T01:25:08.227Z,1019.51
2016-11-25T01:25:18.222Z,1019.51
2016-11-25T01:25:28.215Z,1019.44
2016-11-25T01:25:38.209Z,1019.49
2016-11-25T01:25:48.203Z,1019.5
2016-11-25T01:25:58.199Z,1019.45
2016-11-25T01:26:08.191Z,1019.48
2016-11-25T01:26:18.184Z,1019.47
2016-11-25T01:26:28.198Z,1019.5
2016-11-25T01:26:38.170Z,1019.48
2016-11-25T01:26:48.168Z,1019.46
2016-11-25T01:26:58.161Z,1019.44
2016-11-25T01:27:08.152Z,1019.46
2016-11-25T01:27:18.147Z,1019.4
2016-11-25T01:27:28.140Z,1019.4
2016-11-25T01:27:38.134Z,1019.39
2016-11-25T01:27:48.127Z,1019.4
2016-11-25T01:27:58.121Z,1019.46
2016-11-25T01:28:08.115Z,1019.4
2016-11-25T01:28:18.108Z,1019.38
2016-11-25T01:28:28.102Z,1019.45
2016-11-25T01:28:38.096Z,1019.43
2016-11-25T01:28:48.088Z,1019.4
2016-11-25T01:28:58.084Z,1019.45
2016-11-25T01:29:08.076Z,1019.43
2016-11-25T01:29:18.070Z,1019.44
2016-11-25T01:29:28.067Z,1019.42
2016-11-25T01:29:38.057Z,1019.44
2016-11-25T01:29:48.052Z,1019.39
2016-11-25T01:29:58.045Z,1019.36
2016-11-25T01:30:08.039Z,1019.39
2016-11-25T01:30:18.033Z,1019.38
2016-11-25T01:30:28.026Z,1019.3
2016-11-25T01:30:38.021Z,1019.32
2016-11-25T01:30:48.013Z,1019.34
2016-11-25T01:30:58.007Z,1019.36
2016-11-25T01:31:08.002Z,1019.35
2016-11-25T01:31:17.996Z,1019.35
2016-11-25T01:31:27.988Z,1019.36
2016-11-25T01:31:37.982Z,1019.32
2016-11-25T01:31:47.976Z,1019.36
2016-11-25T01:31:57.970Z,1019.3
2016-11-25T01:32:07.964Z,1019.3
2016-11-25T01:32:17.957Z,1019.28
2016-11-25T01:32:27.952Z,1019.28
2016-11-25T01:32:37.948Z,1019.32
2016-11-25T01:32:47.940Z,1019.29
2016-11-25T01:32:57.931Z,1019.25
2016-11-25T01:33:07.925Z,1019.26
2016-11-25T01:33:17.918Z,1019.3
2016-11-25T01:33:27.913Z,1019.28
2016-11-25T01:33:37.907Z,1019.27
2016-11-25T01:33:47.901Z,1019.27
2016-11-25T01:33:57.896Z,1019.25
2016-11-25T01:34:07.887Z,1019.3
2016-11-25T01:34:17.883Z,1019.28
2016-11-25T01:34:27.876Z,1019.25
2016-11-25T01:34:37.870Z,1019.3
2016-11-25T01:34:47.862Z,1019.25
2016-11-25T01:34:57.858Z,1019.24
2016-11-25T01:35:07.850Z,1019.23
2016-11-25T01:35:17.845Z,1019.24
2016-11-25T01:35:27.836Z,1019.25
2016-11-25T01:35:37.832Z,1019.21
2016-11-25T01:35:47.824Z,1019.19
2016-11-25T01:35:57.817Z,1019.24
2016-11-25T01:36:07.813Z,1019.21
2016-11-25T01:36:17.803Z,1019.22
2016-11-25T01:36:27.801Z,1019.25
2016-11-25T01:36:37.795Z,1019.2
2016-11-25T01:36:47.785Z,1019.17
2016-11-25T01:36:57.780Z,1019.19
2016-11-25T01:37:07.773Z,1019.19
2016-11-25T01:37:17.769Z,1019.2
2016-11-25T01:37:27.763Z,1019.24
2016-11-25T01:37:37.754Z,1019.19
2016-11-25T01:37:47.749Z,1019.22
2016-11-25T01:37:57.743Z,1019.21
2016-11-25T01:38:07.740Z,1019.22
2016-11-25T01:38:17.731Z,1019.2
2016-11-25T01:38:27.724Z,1019.21
2016-11-25T01:38:37.717Z,1019.22
2016-11-25T01:38:47.711Z,1019.18
2016-11-25T01:38:57.706Z,1019.23
2016-11-25T01:39:07.699Z,1019.24
2016-11-25T01:39:17.694Z,1019.21
2016-11-25T01:39:27.686Z,1019.21
2016-11-25T01:39:37.681Z,1019.23
2016-11-25T01:39:47.675Z,1019.21
2016-11-25T01:39:57.667Z,1019.22
2016-11-25T01:40:07.661Z,1019.26
2016-11-25T01:40:17.773Z,1019.29
2016-11-25T01:40:27.650Z,1019.29
2016-11-25T01:40:37.643Z,1019.26
2016-11-25T01:40:47.656Z,1019.27
2016-11-25T01:40:57.632Z,1019.27
2016-11-25T01:41:07.623Z,1019.28
2016-11-25T01:41:17.617Z,1019.28
2016-11-25T01:41:27.613Z,1019.32
2016-11-25T01:41:37.606Z,1019.23
2016-11-25T01:41:47.598Z,1019.31
2016-11-25T01:41:57.593Z,1019.29
2016-11-25T01:42:07.586Z,1019.29
2016-11-25T01:42:17.580Z,1019.3
2016-11-25T01:42:27.573Z,1019.32
2016-11-25T01:42:37.568Z,1019.29
2016-11-25T01:42:47.561Z,1019.33
2016-11-25T01:42:57.554Z,1019.28
2016-11-25T01:43:07.547Z,1019.28
2016-11-25T01:43:17.540Z,1019.3
2016-11-25T01:43:27.536Z,1019.3
2016-11-25T01:43:37.529Z,1019.27
2016-11-25T01:43:47.521Z,1019.32
2016-11-25T01:43:57.517Z,1019.25
2016-11-25T01:44:07.511Z,1019.32
2016-11-25T01:44:17.503Z,1019.33
2016-11-25T01:44:27.496Z,1019.33
2016-11-25T01:44:37.490Z,1019.31
2016-11-25T01:44:47.485Z,1019.28
2016-11-25T01:44:57.480Z,1019.33
2016-11-25T01:45:07.472Z,1019.27
2016-11-25T01:45:17.467Z,1019.28
2016-11-25T01:45:27.457Z,1019.22
2016-11-25T01:45:37.453Z,1019.28
2016-11-25T01:45:47.445Z,1019.22
2016-11-25T01:45:57.441Z,1019.31
2016-11-25T01:46:07.436Z,1019.27
2016-11-25T01:46:17.428Z,1019.21
2016-11-25T01:46:27.423Z,1019.21
2016-11-25T01:46:37.425Z,1019.23
2016-11-25T01:46:47.412Z,1019.22
2016-11-25T01:46:57.402Z,1019.21
2016-11-25T01:47:07.396Z,1019.18
2016-11-25T01:47:17.389Z,1019.16
2016-11-25T01:47:27.383Z,1019.16
2016-11-25T01:47:37.377Z,1019.17
2016-11-25T01:47:47.371Z,1019.17
2016-11-25T01:47:57.364Z,1019.16
2016-11-25T01:48:07.359Z,1019.14
2016-11-25T01:48:17.353Z,1019.07
2016-11-25T01:48:27.347Z,1019.09
2016-11-25T01:48:37.339Z,1019.14
2016-11-25T01:48:47.335Z,1019.15
2016-11-25T01:48:57.327Z,1019.12
2016-11-25T01:49:07.320Z,1019.11
2016-11-25T01:49:17.316Z,1019.09
2016-11-25T01:49:27.310Z,1019.06
2016-11-25T01:49:37.302Z,1019.06
2016-11-25T01:49:47.297Z,1019.01
2016-11-25T01:49:57.290Z,1019
2016-11-25T01:50:07.282Z,1019.04
2016-11-25T01:50:17.276Z,1019.02
2016-11-25T01:50:27.274Z,1019.01
2016-11-25T01:50:37.264Z,1019.02
2016-11-25T01:50:47.256Z,1018.97
2016-11-25T01:50:57.251Z,1019.02
2016-11-25T01:51:07.265Z,1018.97
2016-11-25T01:51:17.239Z,1019
2016-11-25T01:51:27.254Z,1019.02
2016-11-25T01:51:37.226Z,1019
2016-11-25T01:51:47.219Z,1019
2016-11-25T01:51:57.212Z,1019.06
2016-11-25T01:52:07.206Z,1019.06
2016-11-25T01:52:17.572Z,1019.06
2016-11-25T01:52:27.193Z,1019.05
2016-11-25T01:52:37.189Z,1019.04
2016-11-25T01:52:47.181Z,1019.07
2016-11-25T01:52:57.175Z,1019.09
2016-11-25T01:53:07.170Z,1019.08
2016-11-25T01:53:17.183Z,1019.14
2016-11-25T01:53:27.159Z,1019.11
2016-11-25T01:53:37.148Z,1019.11
2016-11-25T01:53:47.145Z,1019.11
2016-11-25T01:53:57.140Z,1019.15
2016-11-25T01:54:07.129Z,1019.18
2016-11-25T01:54:17.125Z,1019.17
2016-11-25T01:54:27.118Z,1019.17
2016-11-25T01:54:37.232Z,1019.15
2016-11-25T01:54:47.110Z,1019.17
2016-11-25T01:54:57.098Z,1019.16
2016-11-25T01:55:07.093Z,1019.12
2016-11-25T01:55:17.086Z,1019.23
2016-11-25T01:55:27.084Z,1019.15
2016-11-25T01:55:37.074Z,1019.15
2016-11-25T01:55:47.067Z,1019.24
2016-11-25T01:55:57.062Z,1019.21
2016-11-25T01:56:07.055Z,1019.18
2016-11-25T01:56:17.049Z,1019.21
2016-11-25T01:56:27.043Z,1019.22
2016-11-25T01:56:37.036Z,1019.23
2016-11-25T01:56:47.029Z,1019.18
2016-11-25T01:56:57.023Z,1019.22
2016-11-25T01:57:07.016Z,1019.2
2016-11-25T01:57:17.009Z,1019.22
2016-11-25T01:57:27.004Z,1019.21
2016-11-25T01:57:36.999Z,1019.28
2016-11-25T01:57:46.993Z,1019.24
2016-11-25T01:57:56.985Z,1019.21
2016-11-25T01:58:06.979Z,1019.22
2016-11-25T01:58:16.972Z,1019.2
2016-11-25T01:58:26.967Z,1019.24
2016-11-25T01:58:36.959Z,1019.2
2016-11-25T01:58:46.952Z,1019.22
2016-11-25T01:58:56.951Z,1019.21
2016-11-25T01:59:07.290Z,1019.28
2016-11-25T01:59:16.936Z,1019.17
2016-11-25T01:59:26.928Z,1019.21
2016-11-25T01:59:36.920Z,1019.18
2016-11-25T01:59:46.916Z,1019.2
2016-11-25T01:59:56.910Z,1019.19
2016-11-25T02:00:06.904Z,1019.22
2016-11-25T02:00:16.896Z,1019.17
2016-11-25T02:00:26.891Z,1019.16
2016-11-25T02:00:36.890Z,1019.15
2016-11-25T02:00:46.877Z,1019.18
2016-11-25T02:00:56.872Z,1019.21
2016-11-25T02:01:06.864Z,1019.19
2016-11-25T02:01:16.859Z,1019.13